sensor_id;sensor_type;location;lat;lon;timestamp;pressure;altitude;pressure_sealevel;temperature;humidity
10852;BME280;5479;52.046;6.314;2022-09-01T00:02:05;102035.03;;;15.69;100.00
10852;BME280;5479;52.046;6.314;2022-09-01T00:04:36;102037.69;;;15.69;100.00
10852;BME280;5479;52.046;6.314;2022-09-01T00:07:05;102032.41;;;15.68;100.00
10852;BME280;5479;52.046;6.314;2022-09-01T00:09:33;102040.53;;;15.66;100.00
10852;BME280;5479;52.046;6.314;2022-09-01T00:12:04;102037.13;;;15.64;100.00
10852;BME280;5479;52.046;6.314;2022-09-01T00:14:35;102040.31;;;15.55;100.00
10852;BME280;5479;52.046;6.314;2022-09-01T00:17:06;102043.28;;;15.65;100.00
10852;BME280;5479;52.046;6.314;2022-09-01T00:19:34;102044.63;;;15.58;100.00
10852;BME280;5479;52.046;6.314;2022-09-01T00:22:03;102039.56;;;15.53;100.00
10852;BME280;5479;52.046;6.314;2022-09-01T00:24:31;102042.41;;;15.50;100.00
10852;BME280;5479;52.046;6.314;2022-09-01T00:26:59;102040.31;;;15.55;100.00
10852;BME280;5479;52.046;6.314;2022-09-01T00:29:28;102041.66;;;15.48;100.00
10852;BME280;5479;52.046;6.314;2022-09-01T00:31:56;102042.75;;;15.44;100.00
10852;BME280;5479;52.046;6.314;2022-09-01T00:34:24;102044.47;;;15.45;100.00
10852;BME280;5479;52.046;6.314;2022-09-01T00:36:51;102043.59;;;15.45;100.00
10852;BME280;5479;52.046;6.314;2022-09-01T00:39:19;102040.72;;;15.34;100.00
10852;BME280;5479;52.046;6.314;2022-09-01T00:41:47;102042.69;;;15.30;100.00
10852;BME280;5479;52.046;6.314;2022-09-01T00:44:18;102044.16;;;15.36;100.00
10852;BME280;5479;52.046;6.314;2022-09-01T00:46:50;102042.53;;;15.33;100.00
10852;BME280;5479;52.046;6.314;2022-09-01T00:49:21;102032.03;;;15.30;100.00
10852;BME280;5479;52.046;6.314;2022-09-01T00:51:55;102037.19;;;15.33;100.00
10852;BME280;5479;52.046;6.314;2022-09-01T00:54:28;102034.69;;;15.30;100.00
10852;BME280;5479;52.046;6.314;2022-09-01T00:56:57;102034.91;;;15.27;100.00
10852;BME280;5479;52.046;6.314;2022-09-01T00:59:27;102040.25;;;15.27;100.00
10852;BME280;5479;52.046;6.314;2022-09-01T01:01:56;102040.25;;;15.27;100.00
10852;BME280;5479;52.046;6.314;2022-09-01T01:04:24;102035.06;;;15.24;100.00
10852;BME280;5479;52.046;6.314;2022-09-01T01:06:55;102033.53;;;15.20;100.00
10852;BME280;5479;52.046;6.314;2022-09-01T01:09:29;102027.84;;;15.26;100.00
10852;BME280;5479;52.046;6.314;2022-09-01T01:12:02;102031.44;;;15.25;100.00
10852;BME280;5479;52.046;6.314;2022-09-01T01:14:34;102024.03;;;15.30;100.00
10852;BME280;5479;52.046;6.314;2022-09-01T01:17:04;102028.00;;;15.23;100.00
10852;BME280;5479;52.046;6.314;2022-09-01T01:19:39;102019.06;;;15.24;100.00
10852;BME280;5479;52.046;6.314;2022-09-01T01:22:34;102019.06;;;15.24;100.00
10852;BME280;5479;52.046;6.314;2022-09-01T01:25:27;102018.13;;;15.39;100.00
10852;BME280;5479;52.046;6.314;2022-09-01T01:28:04;102025.38;;;15.37;100.00
10852;BME280;5479;52.046;6.314;2022-09-01T01:30:32;102017.66;;;15.33;100.00
10852;BME280;5479;52.046;6.314;2022-09-01T01:33:01;102023.66;;;15.36;100.00
10852;BME280;5479;52.046;6.314;2022-09-01T01:35:29;102023.47;;;15.39;100.00
10852;BME280;5479;52.046;6.314;2022-09-01T01:37:57;102014.91;;;15.34;100.00
10852;BME280;5479;52.046;6.314;2022-09-01T01:40:28;102020.06;;;15.37;100.00
10852;BME280;5479;52.046;6.314;2022-09-01T01:42:56;102018.97;;;15.26;100.00
10852;BME280;5479;52.046;6.314;2022-09-01T01:45:24;102013.31;;;15.16;100.00
10852;BME280;5479;52.046;6.314;2022-09-01T01:47:52;102025.69;;;15.17;100.00
10852;BME280;5479;52.046;6.314;2022-09-01T01:50:23;102023.03;;;15.17;100.00
10852;BME280;5479;52.046;6.314;2022-09-01T01:52:52;102025.63;;;15.19;100.00
10852;BME280;5479;52.046;6.314;2022-09-01T01:55:22;102022.97;;;15.19;100.00
10852;BME280;5479;52.046;6.314;2022-09-01T01:57:55;102027.16;;;15.23;100.00
10852;BME280;5479;52.046;6.314;2022-09-01T02:00:26;102022.44;;;15.12;100.00
10852;BME280;5479;52.046;6.314;2022-09-01T02:02:54;102026.66;;;15.16;100.00
10852;BME280;5479;52.046;6.314;2022-09-01T02:05:25;102021.34;;;15.16;100.00
10852;BME280;5479;52.046;6.314;2022-09-01T02:07:54;102027.31;;;15.20;100.00
10852;BME280;5479;52.046;6.314;2022-09-01T02:10:26;102028.56;;;15.14;100.00
10852;BME280;5479;52.046;6.314;2022-09-01T02:12:58;102023.75;;;15.05;100.00
10852;BME280;5479;52.046;6.314;2022-09-01T02:15:29;102031.19;;;15.00;100.00
10852;BME280;5479;52.046;6.314;2022-09-01T02:17:57;102023.59;;;15.08;100.00
10852;BME280;5479;52.046;6.314;2022-09-01T02:20:26;102026.78;;;14.99;100.00
10852;BME280;5479;52.046;6.314;2022-09-01T02:22:55;102036.88;;;14.94;100.00
10852;BME280;5479;52.046;6.314;2022-09-01T02:25:23;102023.75;;;15.05;100.00
10852;BME280;5479;52.046;6.314;2022-09-01T02:27:53;102029.09;;;15.05;100.00
10852;BME280;5479;52.046;6.314;2022-09-01T02:30:23;102029.78;;;15.08;100.00
10852;BME280;5479;52.046;6.314;2022-09-01T02:32:53;102024.47;;;15.08;100.00
10852;BME280;5479;52.046;6.314;2022-09-01T02:35:20;102023.41;;;15.11;100.00
10852;BME280;5479;52.046;6.314;2022-09-01T02:37:49;102027.19;;;15.07;100.00
10852;BME280;5479;52.046;6.314;2022-09-01T02:40:21;102021.09;;;15.05;100.00
10852;BME280;5479;52.046;6.314;2022-09-01T02:42:48;102026.59;;;15.02;100.00
10852;BME280;5479;52.046;6.314;2022-09-01T02:45:20;102018.59;;;15.02;100.00
10852;BME280;5479;52.046;6.314;2022-09-01T02:47:51;102031.94;;;15.02;100.00
10852;BME280;5479;52.046;6.314;2022-09-01T02:50:19;102028.84;;;14.94;100.00
10852;BME280;5479;52.046;6.314;2022-09-01T02:52:48;102027.75;;;14.98;100.00
10852;BME280;5479;52.046;6.314;2022-09-01T02:55:18;102021.56;;;14.97;100.00
10852;BME280;5479;52.046;6.314;2022-09-01T02:57:49;102028.09;;;14.92;100.00
10852;BME280;5479;52.046;6.314;2022-09-01T03:00:18;102031.34;;;14.97;100.00
10852;BME280;5479;52.046;6.314;2022-09-01T03:02:56;102026.03;;;14.97;100.00
10852;BME280;5479;52.046;6.314;2022-09-01T03:05:27;102025.09;;;14.98;100.00
10852;BME280;5479;52.046;6.314;2022-09-01T03:07:57;102027.94;;;14.95;100.00
10852;BME280;5479;52.046;6.314;2022-09-01T03:10:28;102023.63;;;14.92;100.00
10852;BME280;5479;52.046;6.314;2022-09-01T03:13:03;102024.22;;;14.97;100.00
10852;BME280;5479;52.046;6.314;2022-09-01T03:15:32;102031.88;;;14.88;100.00
10852;BME280;5479;52.046;6.314;2022-09-01T03:18:02;102034.13;;;14.80;100.00
10852;BME280;5479;52.046;6.314;2022-09-01T03:20:32;102032.88;;;14.71;100.00
10852;BME280;5479;52.046;6.314;2022-09-01T03:23:01;102025.53;;;14.75;100.00
10852;BME280;5479;52.046;6.314;2022-09-01T03:25:30;102039.13;;;14.70;100.00
10852;BME280;5479;52.046;6.314;2022-09-01T03:27:59;102028.53;;;14.69;100.00
10852;BME280;5479;52.046;6.314;2022-09-01T03:30:30;102034.84;;;14.68;100.00
10852;BME280;5479;52.046;6.314;2022-09-01T03:32:59;102032.78;;;14.57;100.00
10852;BME280;5479;52.046;6.314;2022-09-01T03:35:29;102034.75;;;14.54;100.00
10852;BME280;5479;52.046;6.314;2022-09-01T03:37:58;102029.50;;;14.52;100.00
10852;BME280;5479;52.046;6.314;2022-09-01T03:40:28;102027.09;;;14.47;100.00
10852;BME280;5479;52.046;6.314;2022-09-01T03:42:58;102034.66;;;14.39;100.00
10852;BME280;5479;52.046;6.314;2022-09-01T03:45:26;102030.50;;;14.34;100.00
10852;BME280;5479;52.046;6.314;2022-09-01T03:47:55;102042.53;;;14.25;100.00
10852;BME280;5479;52.046;6.314;2022-09-01T03:50:24;102040.53;;;14.29;100.00
10852;BME280;5479;52.046;6.314;2022-09-01T03:52:57;102028.22;;;14.43;100.00
10852;BME280;5479;52.046;6.314;2022-09-01T03:55:30;102036.53;;;14.37;100.00
10852;BME280;5479;52.046;6.314;2022-09-01T03:57:59;102025.72;;;14.40;100.00
10852;BME280;5479;52.046;6.314;2022-09-01T04:00:28;102029.09;;;14.44;100.00
10852;BME280;5479;52.046;6.314;2022-09-01T04:02:58;102028.47;;;14.39;100.00
10852;BME280;5479;52.046;6.314;2022-09-01T04:05:27;102027.69;;;14.37;100.00
10852;BME280;5479;52.046;6.314;2022-09-01T04:07:58;102028.66;;;14.36;100.00
10852;BME280;5479;52.046;6.314;2022-09-01T04:10:29;102024.66;;;14.27;100.00
10852;BME280;5479;52.046;6.314;2022-09-01T04:12:58;102027.56;;;14.23;100.00
10852;BME280;5479;52.046;6.314;2022-09-01T04:15:27;102022.06;;;14.26;100.00
10852;BME280;5479;52.046;6.314;2022-09-01T04:17:55;102017.75;;;14.08;100.00
10852;BME280;5479;52.046;6.314;2022-09-01T04:20:35;102016.72;;;14.10;100.00
10852;BME280;5479;52.046;6.314;2022-09-01T04:23:18;102023.22;;;14.05;100.00
10852;BME280;5479;52.046;6.314;2022-09-01T04:25:47;102018.31;;;13.97;100.00
10852;BME280;5479;52.046;6.314;2022-09-01T04:28:17;102021.16;;;13.94;100.00
10852;BME280;5479;52.046;6.314;2022-09-01T04:30:53;102019.59;;;13.90;100.00
10852;BME280;5479;52.046;6.314;2022-09-01T04:33:23;102015.81;;;13.94;100.00
10852;BME280;5479;52.046;6.314;2022-09-01T04:35:52;102023.81;;;13.94;100.00
10852;BME280;5479;52.046;6.314;2022-09-01T04:38:23;102020.38;;;13.92;100.00
10852;BME280;5479;52.046;6.314;2022-09-01T04:40:54;102016.25;;;13.86;100.00
10852;BME280;5479;52.046;6.314;2022-09-01T04:43:23;102011.38;;;13.95;100.00
10852;BME280;5479;52.046;6.314;2022-09-01T04:45:51;102014.13;;;13.93;100.00
10852;BME280;5479;52.046;6.314;2022-09-01T04:48:21;102013.91;;;13.80;100.00
10852;BME280;5479;52.046;6.314;2022-09-01T04:50:49;102020.94;;;13.81;100.00
10852;BME280;5479;52.046;6.314;2022-09-01T04:53:18;102023.72;;;13.80;100.00
10852;BME280;5479;52.046;6.314;2022-09-01T04:55:47;102016.97;;;13.73;100.00
10852;BME280;5479;52.046;6.314;2022-09-01T04:58:17;102027.63;;;13.73;100.00
10852;BME280;5479;52.046;6.314;2022-09-01T05:00:47;102024.09;;;13.72;100.00
10852;BME280;5479;52.046;6.314;2022-09-01T05:03:17;102020.44;;;13.75;100.00
10852;BME280;5479;52.046;6.314;2022-09-01T05:05:49;102023.19;;;13.89;100.00
10852;BME280;5479;52.046;6.314;2022-09-01T05:08:20;102027.50;;;13.91;100.00
10852;BME280;5479;52.046;6.314;2022-09-01T05:10:52;102022.56;;;14.01;100.00
10852;BME280;5479;52.046;6.314;2022-09-01T05:13:23;102028.31;;;13.94;100.00
10852;BME280;5479;52.046;6.314;2022-09-01T05:16:00;102020.22;;;13.95;100.00
10852;BME280;5479;52.046;6.314;2022-09-01T05:18:28;102024.88;;;14.07;100.00
10852;BME280;5479;52.046;6.314;2022-09-01T05:20:56;102029.44;;;14.05;100.00
10852;BME280;5479;52.046;6.314;2022-09-01T05:23:25;102025.22;;;14.01;100.00
10852;BME280;5479;52.046;6.314;2022-09-01T05:25:55;102031.00;;;14.09;100.00
10852;BME280;5479;52.046;6.314;2022-09-01T05:28:23;102032.53;;;14.13;100.00
10852;BME280;5479;52.046;6.314;2022-09-01T05:30:52;102033.28;;;14.15;100.00
10852;BME280;5479;52.046;6.314;2022-09-01T05:33:20;102032.22;;;14.19;100.00
10852;BME280;5479;52.046;6.314;2022-09-01T05:35:54;102031.53;;;14.31;99.90
10852;BME280;5479;52.046;6.314;2022-09-01T05:38:22;102033.53;;;14.43;99.13
10852;BME280;5479;52.046;6.314;2022-09-01T05:40:57;102039.47;;;14.48;98.64
10852;BME280;5479;52.046;6.314;2022-09-01T05:43:27;102031.19;;;14.69;97.00
10852;BME280;5479;52.046;6.314;2022-09-01T05:45:56;102035.59;;;14.70;96.68
10852;BME280;5479;52.046;6.314;2022-09-01T05:48:24;102039.28;;;14.83;95.81
10852;BME280;5479;52.046;6.314;2022-09-01T05:50:51;102044.59;;;14.98;94.92
10852;BME280;5479;52.046;6.314;2022-09-01T05:53:26;102052.94;;;15.08;94.41
10852;BME280;5479;52.046;6.314;2022-09-01T05:55:57;102049.00;;;14.99;94.45
10852;BME280;5479;52.046;6.314;2022-09-01T05:58:26;102042.16;;;15.09;94.03
10852;BME280;5479;52.046;6.314;2022-09-01T06:00:55;102048.53;;;15.07;93.99
10852;BME280;5479;52.046;6.314;2022-09-01T06:03:24;102048.72;;;15.04;93.82
10852;BME280;5479;52.046;6.314;2022-09-01T06:05:54;102056.03;;;15.16;93.49
10852;BME280;5479;52.046;6.314;2022-09-01T06:08:24;102051.44;;;15.18;92.17
10852;BME280;5479;52.046;6.314;2022-09-01T06:10:54;102048.44;;;15.38;90.51
10852;BME280;5479;52.046;6.314;2022-09-01T06:13:23;102050.16;;;15.39;90.12
10852;BME280;5479;52.046;6.314;2022-09-01T06:15:52;102052.16;;;15.51;90.09
10852;BME280;5479;52.046;6.314;2022-09-01T06:18:21;102048.56;;;15.66;88.58
10852;BME280;5479;52.046;6.314;2022-09-01T06:20:49;102044.94;;;15.67;88.30
10852;BME280;5479;52.046;6.314;2022-09-01T06:23:17;102048.28;;;15.85;88.18
10852;BME280;5479;52.046;6.314;2022-09-01T06:25:46;102048.69;;;16.07;86.90
10852;BME280;5479;52.046;6.314;2022-09-01T06:28:15;102045.44;;;16.02;86.82
10852;BME280;5479;52.046;6.314;2022-09-01T06:30:46;102045.53;;;16.15;86.54
10852;BME280;5479;52.046;6.314;2022-09-01T06:33:14;102038.75;;;16.23;85.59
10852;BME280;5479;52.046;6.314;2022-09-01T06:35:43;102044.34;;;16.33;85.33
10852;BME280;5479;52.046;6.314;2022-09-01T06:38:13;102047.22;;;16.58;83.02
10852;BME280;5479;52.046;6.314;2022-09-01T06:40:45;102044.91;;;16.66;79.37
10852;BME280;5479;52.046;6.314;2022-09-01T06:43:14;102044.44;;;16.86;79.38
10852;BME280;5479;52.046;6.314;2022-09-01T06:45:45;102052.44;;;17.01;78.48
10852;BME280;5479;52.046;6.314;2022-09-01T06:48:15;102056.00;;;17.14;77.88
10852;BME280;5479;52.046;6.314;2022-09-01T06:50:43;102053.69;;;17.22;77.08
10852;BME280;5479;52.046;6.314;2022-09-01T06:53:12;102054.50;;;17.49;75.95
10852;BME280;5479;52.046;6.314;2022-09-01T06:55:41;102054.34;;;18.02;73.47
10852;BME280;5479;52.046;6.314;2022-09-01T06:58:10;102053.06;;;18.93;68.49
10852;BME280;5479;52.046;6.314;2022-09-01T07:00:41;102047.53;;;20.55;60.42
10852;BME280;5479;52.046;6.314;2022-09-01T07:03:13;102040.63;;;21.27;54.00
10852;BME280;5479;52.046;6.314;2022-09-01T07:05:42;102036.78;;;22.61;49.58
10852;BME280;5479;52.046;6.314;2022-09-01T07:08:13;102044.84;;;23.20;46.11
10852;BME280;5479;52.046;6.314;2022-09-01T07:10:47;102051.66;;;23.15;45.73
10852;BME280;5479;52.046;6.314;2022-09-01T07:13:17;102043.97;;;23.20;45.76
10852;BME280;5479;52.046;6.314;2022-09-01T07:15:48;102047.41;;;23.41;45.49
10852;BME280;5479;52.046;6.314;2022-09-01T07:18:20;102040.47;;;23.94;42.92
10852;BME280;5479;52.046;6.314;2022-09-01T07:20:48;102046.84;;;24.03;41.99
10852;BME280;5479;52.046;6.314;2022-09-01T07:23:17;102046.06;;;24.30;42.09
10852;BME280;5479;52.046;6.314;2022-09-01T07:25:48;102049.94;;;23.81;42.50
10852;BME280;5479;52.046;6.314;2022-09-01T07:28:21;102051.41;;;23.56;42.87
10852;BME280;5479;52.046;6.314;2022-09-01T07:30:51;102046.28;;;23.53;43.13
10852;BME280;5479;52.046;6.314;2022-09-01T07:33:21;102053.41;;;24.00;42.98
10852;BME280;5479;52.046;6.314;2022-09-01T07:35:50;102051.88;;;24.35;41.73
10852;BME280;5479;52.046;6.314;2022-09-01T07:38:21;102052.28;;;24.40;41.01
10852;BME280;5479;52.046;6.314;2022-09-01T07:40:49;102055.16;;;24.38;40.97
10852;BME280;5479;52.046;6.314;2022-09-01T07:43:21;102051.00;;;24.44;40.75
10852;BME280;5479;52.046;6.314;2022-09-01T07:45:51;102053.69;;;24.44;41.30
10852;BME280;5479;52.046;6.314;2022-09-01T07:48:23;102047.63;;;24.32;41.28
10852;BME280;5479;52.046;6.314;2022-09-01T07:50:52;102047.53;;;24.96;40.33
10852;BME280;5479;52.046;6.314;2022-09-01T07:53:25;102055.47;;;25.25;39.47
10852;BME280;5479;52.046;6.314;2022-09-01T07:55:58;102040.56;;;25.29;39.14
10852;BME280;5479;52.046;6.314;2022-09-01T07:58:27;102052.28;;;24.67;40.17
10852;BME280;5479;52.046;6.314;2022-09-01T08:00:56;102044.16;;;24.94;39.41
10852;BME280;5479;52.046;6.314;2022-09-01T08:03:29;102050.25;;;25.32;39.09
10852;BME280;5479;52.046;6.314;2022-09-01T08:06:02;102052.13;;;25.13;39.01
10852;BME280;5479;52.046;6.314;2022-09-01T08:08:32;102052.81;;;25.51;38.40
10852;BME280;5479;52.046;6.314;2022-09-01T08:11:01;102044.38;;;26.05;37.51
10852;BME280;5479;52.046;6.314;2022-09-01T08:13:29;102043.63;;;25.95;37.22
10852;BME280;5479;52.046;6.314;2022-09-01T08:15:57;102040.88;;;25.44;37.68
10852;BME280;5479;52.046;6.314;2022-09-01T08:18:24;102041.03;;;25.60;37.64
10852;BME280;5479;52.046;6.314;2022-09-01T08:20:54;102050.34;;;25.04;38.36
10852;BME280;5479;52.046;6.314;2022-09-01T08:23:22;102039.13;;;24.72;39.40
10852;BME280;5479;52.046;6.314;2022-09-01T08:25:52;102042.91;;;24.89;39.09
10852;BME280;5479;52.046;6.314;2022-09-01T08:28:20;102048.00;;;25.62;37.53
10852;BME280;5479;52.046;6.314;2022-09-01T08:30:48;102049.13;;;25.52;36.43
10852;BME280;5479;52.046;6.314;2022-09-01T08:33:16;102051.81;;;25.16;36.95
10852;BME280;5479;52.046;6.314;2022-09-01T08:35:46;102046.56;;;25.33;37.02
10852;BME280;5479;52.046;6.314;2022-09-01T08:38:16;102048.34;;;25.24;37.19
10852;BME280;5479;52.046;6.314;2022-09-01T08:40:49;102054.06;;;25.56;36.45
10852;BME280;5479;52.046;6.314;2022-09-01T08:43:26;102049.94;;;24.99;37.08
10852;BME280;5479;52.046;6.314;2022-09-01T08:46:04;102045.22;;;25.37;36.66
10852;BME280;5479;52.046;6.314;2022-09-01T08:48:38;102054.53;;;25.52;35.45
10852;BME280;5479;52.046;6.314;2022-09-01T08:51:12;102059.34;;;25.23;35.78
10852;BME280;5479;52.046;6.314;2022-09-01T08:53:46;102040.97;;;24.81;35.89
10852;BME280;5479;52.046;6.314;2022-09-01T08:56:17;102053.50;;;25.17;35.62
10852;BME280;5479;52.046;6.314;2022-09-01T08:58:45;102049.34;;;24.78;36.03
10852;BME280;5479;52.046;6.314;2022-09-01T09:01:19;102042.84;;;24.98;35.69
10852;BME280;5479;52.046;6.314;2022-09-01T09:04:07;102037.44;;;24.98;35.99
10852;BME280;5479;52.046;6.314;2022-09-01T09:06:44;102034.78;;;25.24;35.73
10852;BME280;5479;52.046;6.314;2022-09-01T09:09:16;102030.38;;;25.66;34.48
10852;BME280;5479;52.046;6.314;2022-09-01T09:12:07;102034.28;;;26.15;33.51
10852;BME280;5479;52.046;6.314;2022-09-01T09:15:08;102036.59;;;26.10;34.22
10852;BME280;5479;52.046;6.314;2022-09-01T09:17:41;102031.28;;;26.26;33.89
10852;BME280;5479;52.046;6.314;2022-09-01T09:20:11;102027.91;;;25.73;34.53
10852;BME280;5479;52.046;6.314;2022-09-01T09:22:40;102030.09;;;26.29;33.96
10852;BME280;5479;52.046;6.314;2022-09-01T09:25:13;102016.34;;;26.30;33.76
10852;BME280;5479;52.046;6.314;2022-09-01T09:27:43;102024.47;;;26.72;33.56
10852;BME280;5479;52.046;6.314;2022-09-01T09:30:14;102019.94;;;26.89;32.41
10852;BME280;5479;52.046;6.314;2022-09-01T09:32:49;102017.84;;;26.67;33.60
10852;BME280;5479;52.046;6.314;2022-09-01T09:35:21;102016.03;;;26.33;33.52
10852;BME280;5479;52.046;6.314;2022-09-01T09:37:50;102017.59;;;26.44;33.40
10852;BME280;5479;52.046;6.314;2022-09-01T09:40:21;102003.75;;;26.71;33.17
10852;BME280;5479;52.046;6.314;2022-09-01T09:43:05;102003.06;;;26.19;34.38
10852;BME280;5479;52.046;6.314;2022-09-01T09:45:35;102003.06;;;25.60;34.46
10852;BME280;5479;52.046;6.314;2022-09-01T09:48:07;101996.75;;;26.53;33.42
10852;BME280;5479;52.046;6.314;2022-09-01T09:50:36;101992.50;;;26.08;34.29
10852;BME280;5479;52.046;6.314;2022-09-01T09:53:14;101997.06;;;26.50;33.33
10852;BME280;5479;52.046;6.314;2022-09-01T09:55:53;101994.00;;;26.45;33.31
10852;BME280;5479;52.046;6.314;2022-09-01T09:58:25;101992.94;;;26.95;33.10
10852;BME280;5479;52.046;6.314;2022-09-01T10:00:59;101987.16;;;26.90;32.71
10852;BME280;5479;52.046;6.314;2022-09-01T10:03:39;101985.91;;;26.69;32.66
10852;BME280;5479;52.046;6.314;2022-09-01T10:06:13;101985.94;;;26.77;32.07
10852;BME280;5479;52.046;6.314;2022-09-01T10:08:44;101980.56;;;27.49;32.04
10852;BME280;5479;52.046;6.314;2022-09-01T10:11:32;101959.28;;;28.78;29.58
10852;BME280;5479;52.046;6.314;2022-09-01T10:14:05;101972.84;;;28.24;30.15
10852;BME280;5479;52.046;6.314;2022-09-01T10:16:36;101971.22;;;28.07;29.95
10852;BME280;5479;52.046;6.314;2022-09-01T10:19:06;101967.47;;;27.05;32.56
10852;BME280;5479;52.046;6.314;2022-09-01T10:21:38;101966.94;;;27.58;31.03
10852;BME280;5479;52.046;6.314;2022-09-01T10:24:17;101963.03;;;27.36;30.92
10852;BME280;5479;52.046;6.314;2022-09-01T10:26:50;101972.38;;;27.33;31.48
10852;BME280;5479;52.046;6.314;2022-09-01T10:29:23;101967.31;;;27.93;30.49
10852;BME280;5479;52.046;6.314;2022-09-01T10:31:53;101964.22;;;27.58;31.08
10852;BME280;5479;52.046;6.314;2022-09-01T10:34:22;101972.16;;;27.75;30.87
10852;BME280;5479;52.046;6.314;2022-09-01T10:36:50;101966.63;;;27.04;31.35
10852;BME280;5479;52.046;6.314;2022-09-01T10:39:18;101971.00;;;26.81;32.39
10852;BME280;5479;52.046;6.314;2022-09-01T10:41:52;101960.47;;;27.26;31.27
10852;BME280;5479;52.046;6.314;2022-09-01T10:44:24;101961.72;;;27.95;29.97
10852;BME280;5479;52.046;6.314;2022-09-01T10:46:58;101959.81;;;28.11;29.88
10852;BME280;5479;52.046;6.314;2022-09-01T10:49:57;101951.59;;;27.65;29.74
10852;BME280;5479;52.046;6.314;2022-09-01T10:52:51;101948.91;;;27.48;30.75
10852;BME280;5479;52.046;6.314;2022-09-01T10:55:22;101953.69;;;28.71;29.05
10852;BME280;5479;52.046;6.314;2022-09-01T10:57:58;101952.03;;;27.92;29.35
10852;BME280;5479;52.046;6.314;2022-09-01T11:00:58;101940.13;;;27.85;30.42
10852;BME280;5479;52.046;6.314;2022-09-01T11:03:52;101948.28;;;28.63;28.77
10852;BME280;5479;52.046;6.314;2022-09-01T11:06:54;101939.03;;;27.55;29.78
10852;BME280;5479;52.046;6.314;2022-09-01T11:09:27;101935.94;;;28.98;28.25
10852;BME280;5479;52.046;6.314;2022-09-01T11:15:00;101933.53;;;27.72;29.99
10852;BME280;5479;52.046;6.314;2022-09-01T11:17:30;101929.34;;;28.08;29.88
10852;BME280;5479;52.046;6.314;2022-09-01T11:20:03;101935.25;;;27.73;30.50
10852;BME280;5479;52.046;6.314;2022-09-01T11:22:36;101933.69;;;27.86;30.37
10852;BME280;5479;52.046;6.314;2022-09-01T11:25:10;101924.03;;;27.68;30.35
10852;BME280;5479;52.046;6.314;2022-09-01T11:27:55;101933.63;;;27.39;30.89
10852;BME280;5479;52.046;6.314;2022-09-01T11:30:34;101927.03;;;27.42;30.99
10852;BME280;5479;52.046;6.314;2022-09-01T11:33:25;101934.00;;;27.12;31.45
10852;BME280;5479;52.046;6.314;2022-09-01T11:35:59;101922.44;;;26.78;32.13
10852;BME280;5479;52.046;6.314;2022-09-01T11:38:31;101911.53;;;26.70;32.10
10852;BME280;5479;52.046;6.314;2022-09-01T11:41:00;101913.25;;;26.95;32.05
10852;BME280;5479;52.046;6.314;2022-09-01T11:43:29;101914.59;;;28.02;30.79
10852;BME280;5479;52.046;6.314;2022-09-01T11:46:05;101924.81;;;27.92;30.56
10852;BME280;5479;52.046;6.314;2022-09-01T11:48:35;101913.34;;;28.13;29.95
10852;BME280;5479;52.046;6.314;2022-09-01T11:51:03;101910.50;;;27.43;31.14
10852;BME280;5479;52.046;6.314;2022-09-01T11:53:32;101908.44;;;27.53;30.42
10852;BME280;5479;52.046;6.314;2022-09-01T11:56:13;101911.91;;;26.83;30.91
10852;BME280;5479;52.046;6.314;2022-09-01T11:58:41;101916.16;;;27.02;30.71
10852;BME280;5479;52.046;6.314;2022-09-01T12:01:14;101900.94;;;27.55;30.62
10852;BME280;5479;52.046;6.314;2022-09-01T12:03:42;101904.88;;;28.00;30.28
10852;BME280;5479;52.046;6.314;2022-09-01T12:06:12;101897.38;;;28.02;29.17
10852;BME280;5479;52.046;6.314;2022-09-01T12:08:51;101897.16;;;27.73;29.20
10852;BME280;5479;52.046;6.314;2022-09-01T12:11:22;101900.63;;;27.50;29.65
10852;BME280;5479;52.046;6.314;2022-09-01T12:13:58;101892.09;;;27.62;29.69
10852;BME280;5479;52.046;6.314;2022-09-01T12:16:28;101887.41;;;27.31;30.74
10852;BME280;5479;52.046;6.314;2022-09-01T12:18:58;101883.63;;;27.48;30.35
10852;BME280;5479;52.046;6.314;2022-09-01T12:21:29;101888.75;;;27.19;30.46
10852;BME280;5479;52.046;6.314;2022-09-01T12:24:11;101881.59;;;27.34;30.71
10852;BME280;5479;52.046;6.314;2022-09-01T12:26:40;101886.03;;;27.27;30.45
10852;BME280;5479;52.046;6.314;2022-09-01T12:29:09;101893.19;;;27.44;29.43
10852;BME280;5479;52.046;6.314;2022-09-01T12:31:41;101885.53;;;26.75;30.15
10852;BME280;5479;52.046;6.314;2022-09-01T12:34:26;101870.78;;;26.86;30.73
10852;BME280;5479;52.046;6.314;2022-09-01T12:37:06;101892.84;;;26.67;30.19
10852;BME280;5479;52.046;6.314;2022-09-01T12:39:36;101884.50;;;26.52;30.42
10852;BME280;5479;52.046;6.314;2022-09-01T12:42:08;101874.16;;;26.48;30.54
10852;BME280;5479;52.046;6.314;2022-09-01T12:44:48;101876.56;;;26.75;30.98
10852;BME280;5479;52.046;6.314;2022-09-01T12:47:47;101873.47;;;27.02;30.97
10852;BME280;5479;52.046;6.314;2022-09-01T12:50:36;101873.84;;;27.07;30.03
10852;BME280;5479;52.046;6.314;2022-09-01T12:53:15;101870.75;;;27.02;30.17
10852;BME280;5479;52.046;6.314;2022-09-01T12:55:56;101872.50;;;26.87;31.09
10852;BME280;5479;52.046;6.314;2022-09-01T12:58:26;101871.28;;;26.89;30.69
10852;BME280;5479;52.046;6.314;2022-09-01T13:00:58;101854.81;;;26.67;31.17
10852;BME280;5479;52.046;6.314;2022-09-01T13:03:29;101856.47;;;26.35;31.39
10852;BME280;5479;52.046;6.314;2022-09-01T13:05:58;101859.91;;;26.54;31.32
10852;BME280;5479;52.046;6.314;2022-09-01T13:08:28;101864.16;;;26.56;31.23
10852;BME280;5479;52.046;6.314;2022-09-01T13:10:58;101857.19;;;26.46;31.23
10852;BME280;5479;52.046;6.314;2022-09-01T13:13:28;101849.38;;;26.34;31.07
10852;BME280;5479;52.046;6.314;2022-09-01T13:15:58;101848.00;;;26.55;31.00
10852;BME280;5479;52.046;6.314;2022-09-01T13:18:28;101850.34;;;26.25;31.78
10852;BME280;5479;52.046;6.314;2022-09-01T13:20:57;101851.72;;;26.29;31.35
10852;BME280;5479;52.046;6.314;2022-09-01T13:23:28;101849.53;;;25.83;32.02